sensor_id;sensor_type;location;lat;lon;timestamp;P1;durP1;ratioP1;P2;durP2;ratioP2
11173;SDS011;5643;50.856;12.088;2022-10-16T00:00:41;0.20;;;0.20;;
11173;SDS011;5643;50.856;12.088;2022-10-16T00:03:11;0.30;;;0.30;;
11173;SDS011;5643;50.856;12.088;2022-10-16T00:05:41;0.10;;;0.10;;
11173;SDS011;5643;50.856;12.088;2022-10-16T00:08:09;0.20;;;0.20;;
11173;SDS011;5643;50.856;12.088;2022-10-16T00:10:36;0.20;;;0.20;;
11173;SDS011;5643;50.856;12.088;2022-10-16T00:13:04;0.20;;;0.20;;
11173;SDS011;5643;50.856;12.088;2022-10-16T00:15:32;0.20;;;0.20;;
11173;SDS011;5643;50.856;12.088;2022-10-16T00:18:03;0.27;;;0.20;;
11173;SDS011;5643;50.856;12.088;2022-10-16T00:20:34;0.20;;;0.20;;
11173;SDS011;5643;50.856;12.088;2022-10-16T00:23:03;0.20;;;0.20;;
11173;SDS011;5643;50.856;12.088;2022-10-16T00:25:32;0.20;;;0.20;;
11173;SDS011;5643;50.856;12.088;2022-10-16T00:27:59;0.20;;;0.20;;
11173;SDS011;5643;50.856;12.088;2022-10-16T00:30:27;0.10;;;0.10;;
11173;SDS011;5643;50.856;12.088;2022-10-16T00:32:55;0.17;;;0.17;;
11173;SDS011;5643;50.856;12.088;2022-10-16T00:35:23;0.30;;;0.20;;
11173;SDS011;5643;50.856;12.088;2022-10-16T00:37:53;0.30;;;0.10;;
11173;SDS011;5643;50.856;12.088;2022-10-16T00:40:20;0.20;;;0.20;;
11173;SDS011;5643;50.856;12.088;2022-10-16T00:42:47;0.30;;;0.20;;
11173;SDS011;5643;50.856;12.088;2022-10-16T00:45:14;0.83;;;0.10;;
11173;SDS011;5643;50.856;12.088;2022-10-16T00:47:42;0.20;;;0.20;;
11173;SDS011;5643;50.856;12.088;2022-10-16T00:50:13;0.17;;;0.17;;
11173;SDS011;5643;50.856;12.088;2022-10-16T00:52:44;0.30;;;0.30;;
11173;SDS011;5643;50.856;12.088;2022-10-16T00:55:14;0.20;;;0.20;;
11173;SDS011;5643;50.856;12.088;2022-10-16T00:57:41;0.20;;;0.20;;
11173;SDS011;5643;50.856;12.088;2022-10-16T01:00:10;0.20;;;0.20;;
11173;SDS011;5643;50.856;12.088;2022-10-16T01:02:38;0.20;;;0.17;;
11173;SDS011;5643;50.856;12.088;2022-10-16T01:05:06;0.20;;;0.20;;
11173;SDS011;5643;50.856;12.088;2022-10-16T01:07:36;0.10;;;0.10;;
11173;SDS011;5643;50.856;12.088;2022-10-16T01:10:11;0.20;;;0.10;;
11173;SDS011;5643;50.856;12.088;2022-10-16T01:12:42;0.27;;;0.27;;
11173;SDS011;5643;50.856;12.088;2022-10-16T01:15:14;0.20;;;0.20;;
11173;SDS011;5643;50.856;12.088;2022-10-16T01:17:45;0.30;;;0.20;;
11173;SDS011;5643;50.856;12.088;2022-10-16T01:20:15;0.20;;;0.20;;
11173;SDS011;5643;50.856;12.088;2022-10-16T01:22:48;0.20;;;0.20;;
11173;SDS011;5643;50.856;12.088;2022-10-16T01:25:19;0.20;;;0.20;;
11173;SDS011;5643;50.856;12.088;2022-10-16T01:27:48;0.30;;;0.20;;
11173;SDS011;5643;50.856;12.088;2022-10-16T01:30:17;0.30;;;0.20;;
11173;SDS011;5643;50.856;12.088;2022-10-16T01:32:47;0.20;;;0.20;;
11173;SDS011;5643;50.856;12.088;2022-10-16T01:35:18;0.17;;;0.17;;
11173;SDS011;5643;50.856;12.088;2022-10-16T01:37:48;0.20;;;0.20;;
11173;SDS011;5643;50.856;12.088;2022-10-16T01:40:18;0.83;;;0.20;;
11173;SDS011;5643;50.856;12.088;2022-10-16T01:42:49;0.27;;;0.27;;
11173;SDS011;5643;50.856;12.088;2022-10-16T01:45:20;0.20;;;0.20;;
11173;SDS011;5643;50.856;12.088;2022-10-16T01:47:48;0.20;;;0.20;;
11173;SDS011;5643;50.856;12.088;2022-10-16T01:50:16;0.23;;;0.23;;
11173;SDS011;5643;50.856;12.088;2022-10-16T01:52:45;0.20;;;0.20;;
11173;SDS011;5643;50.856;12.088;2022-10-16T01:55:13;0.20;;;0.20;;
11173;SDS011;5643;50.856;12.088;2022-10-16T01:57:42;0.20;;;0.20;;
11173;SDS011;5643;50.856;12.088;2022-10-16T02:00:12;0.27;;;0.27;;
11173;SDS011;5643;50.856;12.088;2022-10-16T02:02:40;0.30;;;0.30;;
11173;SDS011;5643;50.856;12.088;2022-10-16T02:05:10;0.20;;;0.20;;
11173;SDS011;5643;50.856;12.088;2022-10-16T02:07:37;0.20;;;0.20;;
11173;SDS011;5643;50.856;12.088;2022-10-16T02:10:06;0.20;;;0.20;;
11173;SDS011;5643;50.856;12.088;2022-10-16T02:12:34;0.30;;;0.30;;
11173;SDS011;5643;50.856;12.088;2022-10-16T02:15:05;0.20;;;0.20;;
11173;SDS011;5643;50.856;12.088;2022-10-16T02:17:34;0.30;;;0.30;;
11173;SDS011;5643;50.856;12.088;2022-10-16T02:20:01;0.37;;;0.30;;
11173;SDS011;5643;50.856;12.088;2022-10-16T02:22:29;0.30;;;0.20;;
11173;SDS011;5643;50.856;12.088;2022-10-16T02:24:58;0.30;;;0.30;;
11173;SDS011;5643;50.856;12.088;2022-10-16T02:27:27;0.20;;;0.20;;
11173;SDS011;5643;50.856;12.088;2022-10-16T02:29:57;0.13;;;0.13;;
11173;SDS011;5643;50.856;12.088;2022-10-16T02:32:27;0.57;;;0.30;;
11173;SDS011;5643;50.856;12.088;2022-10-16T02:34:58;0.20;;;0.20;;
11173;SDS011;5643;50.856;12.088;2022-10-16T02:37:25;0.20;;;0.20;;
11173;SDS011;5643;50.856;12.088;2022-10-16T02:39:54;0.20;;;0.20;;
11173;SDS011;5643;50.856;12.088;2022-10-16T02:42:27;0.47;;;0.20;;
11173;SDS011;5643;50.856;12.088;2022-10-16T02:44:54;0.20;;;0.20;;
11173;SDS011;5643;50.856;12.088;2022-10-16T02:47:21;0.20;;;0.20;;
11173;SDS011;5643;50.856;12.088;2022-10-16T02:49:48;0.20;;;0.20;;
11173;SDS011;5643;50.856;12.088;2022-10-16T02:52:17;0.30;;;0.27;;
11173;SDS011;5643;50.856;12.088;2022-10-16T02:54:44;0.63;;;0.20;;
11173;SDS011;5643;50.856;12.088;2022-10-16T02:57:14;1.23;;;0.33;;
11173;SDS011;5643;50.856;12.088;2022-10-16T02:59:41;0.30;;;0.30;;
11173;SDS011;5643;50.856;12.088;2022-10-16T03:02:08;0.33;;;0.30;;
11173;SDS011;5643;50.856;12.088;2022-10-16T03:04:35;0.20;;;0.20;;
11173;SDS011;5643;50.856;12.088;2022-10-16T03:07:02;0.40;;;0.30;;
11173;SDS011;5643;50.856;12.088;2022-10-16T03:09:31;0.30;;;0.30;;
11173;SDS011;5643;50.856;12.088;2022-10-16T03:11:58;0.30;;;0.20;;
11173;SDS011;5643;50.856;12.088;2022-10-16T03:14:26;0.20;;;0.20;;
11173;SDS011;5643;50.856;12.088;2022-10-16T03:16:53;0.20;;;0.20;;
11173;SDS011;5643;50.856;12.088;2022-10-16T03:19:20;0.30;;;0.30;;
11173;SDS011;5643;50.856;12.088;2022-10-16T03:21:48;0.70;;;0.20;;
11173;SDS011;5643;50.856;12.088;2022-10-16T03:24:15;0.93;;;0.20;;
11173;SDS011;5643;50.856;12.088;2022-10-16T03:26:44;0.87;;;0.20;;
11173;SDS011;5643;50.856;12.088;2022-10-16T03:29:11;0.20;;;0.20;;
11173;SDS011;5643;50.856;12.088;2022-10-16T03:31:38;0.13;;;0.13;;
11173;SDS011;5643;50.856;12.088;2022-10-16T03:34:05;0.27;;;0.27;;
11173;SDS011;5643;50.856;12.088;2022-10-16T03:36:33;0.20;;;0.20;;
11173;SDS011;5643;50.856;12.088;2022-10-16T03:39:00;0.20;;;0.20;;
11173;SDS011;5643;50.856;12.088;2022-10-16T03:41:27;0.30;;;0.20;;
11173;SDS011;5643;50.856;12.088;2022-10-16T03:43:56;0.20;;;0.20;;
11173;SDS011;5643;50.856;12.088;2022-10-16T03:46:23;0.23;;;0.23;;
11173;SDS011;5643;50.856;12.088;2022-10-16T03:48:53;0.10;;;0.10;;
11173;SDS011;5643;50.856;12.088;2022-10-16T03:51:20;0.20;;;0.20;;
11173;SDS011;5643;50.856;12.088;2022-10-16T03:53:47;0.23;;;0.20;;
11173;SDS011;5643;50.856;12.088;2022-10-16T03:56:15;0.20;;;0.20;;
11173;SDS011;5643;50.856;12.088;2022-10-16T03:58:42;0.30;;;0.30;;
11173;SDS011;5643;50.856;12.088;2022-10-16T04:01:11;0.20;;;0.20;;
11173;SDS011;5643;50.856;12.088;2022-10-16T04:03:38;0.50;;;0.23;;
11173;SDS011;5643;50.856;12.088;2022-10-16T04:06:05;0.20;;;0.20;;
11173;SDS011;5643;50.856;12.088;2022-10-16T04:08:32;0.20;;;0.20;;
11173;SDS011;5643;50.856;12.088;2022-10-16T04:11:00;0.20;;;0.20;;
11173;SDS011;5643;50.856;12.088;2022-10-16T04:13:27;0.20;;;0.20;;
11173;SDS011;5643;50.856;12.088;2022-10-16T04:15:54;0.50;;;0.20;;
11173;SDS011;5643;50.856;12.088;2022-10-16T04:18:23;0.20;;;0.20;;
11173;SDS011;5643;50.856;12.088;2022-10-16T04:20:52;0.10;;;0.10;;
11173;SDS011;5643;50.856;12.088;2022-10-16T04:23:19;0.20;;;0.20;;
11173;SDS011;5643;50.856;12.088;2022-10-16T04:25:48;0.20;;;0.20;;
11173;SDS011;5643;50.856;12.088;2022-10-16T04:28:15;0.37;;;0.20;;
11173;SDS011;5643;50.856;12.088;2022-10-16T04:30:42;0.20;;;0.20;;
11173;SDS011;5643;50.856;12.088;2022-10-16T04:33:10;0.20;;;0.20;;
11173;SDS011;5643;50.856;12.088;2022-10-16T04:35:39;0.53;;;0.20;;
11173;SDS011;5643;50.856;12.088;2022-10-16T04:38:07;0.33;;;0.33;;
11173;SDS011;5643;50.856;12.088;2022-10-16T04:40:34;0.30;;;0.20;;
11173;SDS011;5643;50.856;12.088;2022-10-16T04:43:02;0.20;;;0.20;;
11173;SDS011;5643;50.856;12.088;2022-10-16T04:45:29;0.20;;;0.20;;
11173;SDS011;5643;50.856;12.088;2022-10-16T04:47:56;0.23;;;0.23;;
11173;SDS011;5643;50.856;12.088;2022-10-16T04:50:24;0.20;;;0.20;;
11173;SDS011;5643;50.856;12.088;2022-10-16T04:52:53;0.60;;;0.30;;
11173;SDS011;5643;50.856;12.088;2022-10-16T04:55:20;0.30;;;0.30;;
11173;SDS011;5643;50.856;12.088;2022-10-16T04:57:47;0.20;;;0.20;;
11173;SDS011;5643;50.856;12.088;2022-10-16T05:00:14;0.20;;;0.20;;
11173;SDS011;5643;50.856;12.088;2022-10-16T05:02:41;0.20;;;0.20;;
11173;SDS011;5643;50.856;12.088;2022-10-16T05:05:08;0.20;;;0.20;;
11173;SDS011;5643;50.856;12.088;2022-10-16T05:07:36;0.27;;;0.27;;
11173;SDS011;5643;50.856;12.088;2022-10-16T05:10:05;0.93;;;0.20;;
11173;SDS011;5643;50.856;12.088;2022-10-16T05:12:32;0.20;;;0.20;;
11173;SDS011;5643;50.856;12.088;2022-10-16T05:14:59;0.20;;;0.20;;
11173;SDS011;5643;50.856;12.088;2022-10-16T05:17:27;0.20;;;0.20;;
11173;SDS011;5643;50.856;12.088;2022-10-16T05:19:54;0.40;;;0.23;;
11173;SDS011;5643;50.856;12.088;2022-10-16T05:22:21;0.20;;;0.20;;
11173;SDS011;5643;50.856;12.088;2022-10-16T05:24:48;0.20;;;0.20;;
11173;SDS011;5643;50.856;12.088;2022-10-16T05:27:17;0.20;;;0.20;;
11173;SDS011;5643;50.856;12.088;2022-10-16T05:29:45;0.20;;;0.20;;
11173;SDS011;5643;50.856;12.088;2022-10-16T05:32:13;0.20;;;0.20;;
11173;SDS011;5643;50.856;12.088;2022-10-16T05:34:40;0.93;;;0.30;;
11173;SDS011;5643;50.856;12.088;2022-10-16T05:37:08;0.20;;;0.20;;
11173;SDS011;5643;50.856;12.088;2022-10-16T05:39:37;0.30;;;0.30;;
11173;SDS011;5643;50.856;12.088;2022-10-16T05:42:04;0.20;;;0.20;;
11173;SDS011;5643;50.856;12.088;2022-10-16T05:44:32;0.27;;;0.27;;
11173;SDS011;5643;50.856;12.088;2022-10-16T05:47:00;0.20;;;0.20;;
11173;SDS011;5643;50.856;12.088;2022-10-16T05:49:27;0.30;;;0.17;;
11173;SDS011;5643;50.856;12.088;2022-10-16T05:51:54;0.20;;;0.20;;
11173;SDS011;5643;50.856;12.088;2022-10-16T05:54:21;0.23;;;0.20;;
11173;SDS011;5643;50.856;12.088;2022-10-16T05:56:49;0.20;;;0.20;;
11173;SDS011;5643;50.856;12.088;2022-10-16T05:59:16;0.20;;;0.20;;
11173;SDS011;5643;50.856;12.088;2022-10-16T06:01:44;0.20;;;0.20;;
11173;SDS011;5643;50.856;12.088;2022-10-16T06:04:12;0.97;;;0.20;;
11173;SDS011;5643;50.856;12.088;2022-10-16T06:06:39;0.20;;;0.20;;
11173;SDS011;5643;50.856;12.088;2022-10-16T06:09:06;0.30;;;0.10;;
11173;SDS011;5643;50.856;12.088;2022-10-16T06:11:33;0.20;;;0.20;;
11173;SDS011;5643;50.856;12.088;2022-10-16T06:14:01;0.53;;;0.20;;
11173;SDS011;5643;50.856;12.088;2022-10-16T06:16:32;0.20;;;0.20;;
11173;SDS011;5643;50.856;12.088;2022-10-16T06:19:00;0.40;;;0.20;;
11173;SDS011;5643;50.856;12.088;2022-10-16T06:21:28;0.10;;;0.10;;
11173;SDS011;5643;50.856;12.088;2022-10-16T06:23:56;0.20;;;0.20;;
11173;SDS011;5643;50.856;12.088;2022-10-16T06:26:24;0.13;;;0.10;;
11173;SDS011;5643;50.856;12.088;2022-10-16T06:28:51;0.10;;;0.10;;
11173;SDS011;5643;50.856;12.088;2022-10-16T06:31:18;0.10;;;0.10;;
11173;SDS011;5643;50.856;12.088;2022-10-16T06:33:49;0.20;;;0.20;;
11173;SDS011;5643;50.856;12.088;2022-10-16T06:36:18;0.20;;;0.20;;
11173;SDS011;5643;50.856;12.088;2022-10-16T06:38:45;0.20;;;0.20;;
11173;SDS011;5643;50.856;12.088;2022-10-16T06:41:13;0.10;;;0.10;;
11173;SDS011;5643;50.856;12.088;2022-10-16T06:43:40;0.10;;;0.10;;
11173;SDS011;5643;50.856;12.088;2022-10-16T06:46:09;0.10;;;0.10;;
11173;SDS011;5643;50.856;12.088;2022-10-16T06:48:36;0.10;;;0.10;;
11173;SDS011;5643;50.856;12.088;2022-10-16T06:51:05;0.10;;;0.10;;
11173;SDS011;5643;50.856;12.088;2022-10-16T06:53:34;0.60;;;0.20;;
11173;SDS011;5643;50.856;12.088;2022-10-16T06:56:08;0.20;;;0.20;;
11173;SDS011;5643;50.856;12.088;2022-10-16T06:58:35;0.10;;;0.10;;
11173;SDS011;5643;50.856;12.088;2022-10-16T07:01:02;0.30;;;0.30;;
11173;SDS011;5643;50.856;12.088;2022-10-16T07:03:30;0.30;;;0.30;;
11173;SDS011;5643;50.856;12.088;2022-10-16T07:06:00;0.20;;;0.20;;
11173;SDS011;5643;50.856;12.088;2022-10-16T07:08:27;0.20;;;0.20;;
11173;SDS011;5643;50.856;12.088;2022-10-16T07:11:00;0.27;;;0.27;;
11173;SDS011;5643;50.856;12.088;2022-10-16T07:13:27;0.13;;;0.13;;
11173;SDS011;5643;50.856;12.088;2022-10-16T07:15:54;0.30;;;0.30;;
11173;SDS011;5643;50.856;12.088;2022-10-16T07:18:21;0.40;;;0.40;;
11173;SDS011;5643;50.856;12.088;2022-10-16T07:20:52;0.20;;;0.20;;
11173;SDS011;5643;50.856;12.088;2022-10-16T07:23:19;0.20;;;0.20;;
11173;SDS011;5643;50.856;12.088;2022-10-16T07:25:52;0.20;;;0.17;;
11173;SDS011;5643;50.856;12.088;2022-10-16T07:28:21;0.20;;;0.20;;
11173;SDS011;5643;50.856;12.088;2022-10-16T07:30:48;0.23;;;0.20;;
11173;SDS011;5643;50.856;12.088;2022-10-16T07:33:16;0.20;;;0.20;;
11173;SDS011;5643;50.856;12.088;2022-10-16T07:35:49;0.27;;;0.27;;
11173;SDS011;5643;50.856;12.088;2022-10-16T07:38:17;0.10;;;0.10;;
11173;SDS011;5643;50.856;12.088;2022-10-16T07:40:44;0.20;;;0.20;;
11173;SDS011;5643;50.856;12.088;2022-10-16T07:43:11;0.20;;;0.20;;
11173;SDS011;5643;50.856;12.088;2022-10-16T07:45:47;0.40;;;0.30;;
11173;SDS011;5643;50.856;12.088;2022-10-16T07:48:15;0.20;;;0.20;;
11173;SDS011;5643;50.856;12.088;2022-10-16T07:50:42;0.20;;;0.20;;
11173;SDS011;5643;50.856;12.088;2022-10-16T07:53:10;0.20;;;0.20;;
11173;SDS011;5643;50.856;12.088;2022-10-16T07:55:37;0.40;;;0.20;;
11173;SDS011;5643;50.856;12.088;2022-10-16T07:58:04;0.30;;;0.30;;
11173;SDS011;5643;50.856;12.088;2022-10-16T08:00:32;0.37;;;0.30;;
11173;SDS011;5643;50.856;12.088;2022-10-16T08:03:01;0.30;;;0.30;;
11173;SDS011;5643;50.856;12.088;2022-10-16T08:05:28;0.40;;;0.40;;
11173;SDS011;5643;50.856;12.088;2022-10-16T08:07:56;0.40;;;0.40;;
11173;SDS011;5643;50.856;12.088;2022-10-16T08:10:24;0.30;;;0.30;;
11173;SDS011;5643;50.856;12.088;2022-10-16T08:12:52;0.20;;;0.20;;
11173;SDS011;5643;50.856;12.088;2022-10-16T08:15:19;0.30;;;0.30;;
11173;SDS011;5643;50.856;12.088;2022-10-16T08:17:53;0.20;;;0.20;;
11173;SDS011;5643;50.856;12.088;2022-10-16T08:20:22;0.30;;;0.30;;
11173;SDS011;5643;50.856;12.088;2022-10-16T08:22:49;0.40;;;0.20;;
11173;SDS011;5643;50.856;12.088;2022-10-16T08:25:17;0.30;;;0.30;;
11173;SDS011;5643;50.856;12.088;2022-10-16T08:27:44;0.20;;;0.20;;
11173;SDS011;5643;50.856;12.088;2022-10-16T08:30:11;0.20;;;0.20;;
11173;SDS011;5643;50.856;12.088;2022-10-16T08:32:39;0.20;;;0.20;;
11173;SDS011;5643;50.856;12.088;2022-10-16T08:35:08;0.30;;;0.30;;
11173;SDS011;5643;50.856;12.088;2022-10-16T08:37:39;0.30;;;0.30;;
11173;SDS011;5643;50.856;12.088;2022-10-16T08:40:07;0.40;;;0.40;;
11173;SDS011;5643;50.856;12.088;2022-10-16T08:42:42;0.40;;;0.40;;
11173;SDS011;5643;50.856;12.088;2022-10-16T08:45:15;0.40;;;0.40;;
11173;SDS011;5643;50.856;12.088;2022-10-16T08:47:48;0.57;;;0.40;;
11173;SDS011;5643;50.856;12.088;2022-10-16T08:50:18;0.40;;;0.40;;
11173;SDS011;5643;50.856;12.088;2022-10-16T08:52:50;0.50;;;0.50;;
11173;SDS011;5643;50.856;12.088;2022-10-16T08:55:23;0.30;;;0.30;;
11173;SDS011;5643;50.856;12.088;2022-10-16T08:57:54;0.73;;;0.47;;
11173;SDS011;5643;50.856;12.088;2022-10-16T09:00:22;0.40;;;0.40;;
11173;SDS011;5643;50.856;12.088;2022-10-16T09:02:50;0.30;;;0.30;;
11173;SDS011;5643;50.856;12.088;2022-10-16T09:05:24;0.53;;;0.50;;
11173;SDS011;5643;50.856;12.088;2022-10-16T09:07:59;0.43;;;0.43;;
11173;SDS011;5643;50.856;12.088;2022-10-16T09:10:32;0.50;;;0.50;;
11173;SDS011;5643;50.856;12.088;2022-10-16T09:13:07;0.50;;;0.50;;
11173;SDS011;5643;50.856;12.088;2022-10-16T09:15:39;0.40;;;0.40;;
11173;SDS011;5643;50.856;12.088;2022-10-16T09:18:10;0.43;;;0.43;;
11173;SDS011;5643;50.856;12.088;2022-10-16T09:20:42;0.50;;;0.50;;
11173;SDS011;5643;50.856;12.088;2022-10-16T09:23:15;0.50;;;0.50;;
11173;SDS011;5643;50.856;12.088;2022-10-16T09:25:44;0.50;;;0.40;;
11173;SDS011;5643;50.856;12.088;2022-10-16T09:28:13;0.40;;;0.40;;
11173;SDS011;5643;50.856;12.088;2022-10-16T09:30:41;0.40;;;0.40;;
11173;SDS011;5643;50.856;12.088;2022-10-16T09:33:08;0.40;;;0.40;;
11173;SDS011;5643;50.856;12.088;2022-10-16T09:35:37;0.40;;;0.40;;
11173;SDS011;5643;50.856;12.088;2022-10-16T09:38:05;0.50;;;0.50;;
11173;SDS011;5643;50.856;12.088;2022-10-16T09:40:34;0.50;;;0.50;;
11173;SDS011;5643;50.856;12.088;2022-10-16T09:43:05;0.50;;;0.50;;
11173;SDS011;5643;50.856;12.088;2022-10-16T09:45:34;0.63;;;0.53;;
11173;SDS011;5643;50.856;12.088;2022-10-16T09:48:08;0.50;;;0.50;;
11173;SDS011;5643;50.856;12.088;2022-10-16T09:50:36;0.50;;;0.50;;
11173;SDS011;5643;50.856;12.088;2022-10-16T09:53:05;0.50;;;0.50;;
11173;SDS011;5643;50.856;12.088;2022-10-16T09:55:34;0.60;;;0.60;;
11173;SDS011;5643;50.856;12.088;2022-10-16T09:58:01;0.43;;;0.43;;
11173;SDS011;5643;50.856;12.088;2022-10-16T10:00:29;0.50;;;0.50;;
11173;SDS011;5643;50.856;12.088;2022-10-16T10:02:58;0.50;;;0.50;;
11173;SDS011;5643;50.856;12.088;2022-10-16T10:05:26;0.40;;;0.40;;
11173;SDS011;5643;50.856;12.088;2022-10-16T10:07:54;0.40;;;0.40;;
11173;SDS011;5643;50.856;12.088;2022-10-16T10:10:22;0.47;;;0.40;;
11173;SDS011;5643;50.856;12.088;2022-10-16T10:12:51;0.50;;;0.50;;
11173;SDS011;5643;50.856;12.088;2022-10-16T10:15:19;0.40;;;0.40;;
11173;SDS011;5643;50.856;12.088;2022-10-16T10:17:48;0.40;;;0.40;;
11173;SDS011;5643;50.856;12.088;2022-10-16T10:20:22;0.30;;;0.30;;
11173;SDS011;5643;50.856;12.088;2022-10-16T10:22:49;0.30;;;0.27;;
11173;SDS011;5643;50.856;12.088;2022-10-16T10:25:25;0.20;;;0.20;;
11173;SDS011;5643;50.856;12.088;2022-10-16T10:28:06;0.30;;;0.30;;
11173;SDS011;5643;50.856;12.088;2022-10-16T10:30:38;0.33;;;0.33;;
11173;SDS011;5643;50.856;12.088;2022-10-16T10:33:17;0.50;;;0.50;;
11173;SDS011;5643;50.856;12.088;2022-10-16T10:35:48;0.40;;;0.40;;
11173;SDS011;5643;50.856;12.088;2022-10-16T10:38:21;0.40;;;0.40;;
11173;SDS011;5643;50.856;12.088;2022-10-16T10:40:52;0.30;;;0.30;;
11173;SDS011;5643;50.856;12.088;2022-10-16T10:43:28;0.30;;;0.30;;
11173;SDS011;5643;50.856;12.088;2022-10-16T10:45:58;0.30;;;0.30;;
11173;SDS011;5643;50.856;12.088;2022-10-16T10:48:33;0.30;;;0.30;;
11173;SDS011;5643;50.856;12.088;2022-10-16T10:51:08;0.30;;;0.30;;
11173;SDS011;5643;50.856;12.088;2022-10-16T10:53:39;1.03;;;0.20;;
11173;SDS011;5643;50.856;12.088;2022-10-16T10:56:13;0.30;;;0.30;;
11173;SDS011;5643;50.856;12.088;2022-10-16T11:01:26;0.30;;;0.30;;
11173;SDS011;5643;50.856;12.088;2022-10-16T11:04:09;0.40;;;0.40;;
11173;SDS011;5643;50.856;12.088;2022-10-16T11:06:43;0.20;;;0.20;;
11173;SDS011;5643;50.856;12.088;2022-10-16T11:09:13;0.20;;;0.20;;
11173;SDS011;5643;50.856;12.088;2022-10-16T11:11:43;0.23;;;0.23;;
11173;SDS011;5643;50.856;12.088;2022-10-16T11:14:14;0.30;;;0.30;;
11173;SDS011;5643;50.856;12.088;2022-10-16T11:16:44;0.30;;;0.27;;
11173;SDS011;5643;50.856;12.088;2022-10-16T11:19:14;0.20;;;0.20;;
11173;SDS011;5643;50.856;12.088;2022-10-16T11:21:47;0.20;;;0.20;;
11173;SDS011;5643;50.856;12.088;2022-10-16T11:24:17;0.20;;;0.20;;
11173;SDS011;5643;50.856;12.088;2022-10-16T11:26:46;0.20;;;0.20;;
11173;SDS011;5643;50.856;12.088;2022-10-16T11:29:16;0.20;;;0.20;;
11173;SDS011;5643;50.856;12.088;2022-10-16T11:31:47;0.30;;;0.30;;
11173;SDS011;5643;50.856;12.088;2022-10-16T11:34:17;0.20;;;0.20;;
11173;SDS011;5643;50.856;12.088;2022-10-16T11:36:47;1.13;;;0.40;;
11173;SDS011;5643;50.856;12.088;2022-10-16T11:39:19;0.30;;;0.30;;
11173;SDS011;5643;50.856;12.088;2022-10-16T11:41:48;0.20;;;0.20;;
11173;SDS011;5643;50.856;12.088;2022-10-16T11:44:18;0.20;;;0.20;;
11173;SDS011;5643;50.856;12.088;2022-10-16T11:46:51;0.28;;;0.28;;
11173;SDS011;5643;50.856;12.088;2022-10-16T11:49:20;0.40;;;0.40;;
11173;SDS011;5643;50.856;12.088;2022-10-16T11:51:49;0.35;;;0.35;;
11173;SDS011;5643;50.856;12.088;2022-10-16T11:54:23;0.30;;;0.30;;
11173;SDS011;5643;50.856;12.088;2022-10-16T11:56:53;0.30;;;0.30;;
11173;SDS011;5643;50.856;12.088;2022-10-16T11:59:23;0.80;;;0.30;;
11173;SDS011;5643;50.856;12.088;2022-10-16T12:01:57;0.37;;;0.37;;
11173;SDS011;5643;50.856;12.088;2022-10-16T12:04:30;0.30;;;0.30;;
11173;SDS011;5643;50.856;12.088;2022-10-16T12:07:02;0.30;;;0.30;;
11173;SDS011;5643;50.856;12.088;2022-10-16T12:09:32;0.20;;;0.20;;
11173;SDS011;5643;50.856;12.088;2022-10-16T12:12:01;0.30;;;0.30;;
11173;SDS011;5643;50.856;12.088;2022-10-16T12:14:35;0.30;;;0.30;;
11173;SDS011;5643;50.856;12.088;2022-10-16T12:19:58;0.30;;;0.30;;
11173;SDS011;5643;50.856;12.088;2022-10-16T12:22:26;0.40;;;0.40;;
11173;SDS011;5643;50.856;12.088;2022-10-16T12:24:55;0.63;;;0.40;;
11173;SDS011;5643;50.856;12.088;2022-10-16T12:27:23;0.65;;;0.30;;
11173;SDS011;5643;50.856;12.088;2022-10-16T12:29:54;0.45;;;0.40;;
11173;SDS011;5643;50.856;12.088;2022-10-16T12:32:23;0.20;;;0.20;;
11173;SDS011;5643;50.856;12.088;2022-10-16T12:34:53;0.27;;;0.27;;
11173;SDS011;5643;50.856;12.088;2022-10-16T12:37:22;0.20;;;0.20;;
11173;SDS011;5643;50.856;12.088;2022-10-16T12:39:50;0.30;;;0.30;;
11173;SDS011;5643;50.856;12.088;2022-10-16T12:42:20;0.27;;;0.27;;
11173;SDS011;5643;50.856;12.088;2022-10-16T12:44:51;0.30;;;0.30;;
11173;SDS011;5643;50.856;12.088;2022-10-16T12:47:19;0.30;;;0.30;;
11173;SDS011;5643;50.856;12.088;2022-10-16T12:49:48;0.20;;;0.20;;
11173;SDS011;5643;50.856;12.088;2022-10-16T12:52:28;0.10;;;0.10;;
11173;SDS011;5643;50.856;12.088;2022-10-16T12:54:56;0.30;;;0.30;;
11173;SDS011;5643;50.856;12.088;2022-10-16T12:57:29;0.17;;;0.17;;
11173;SDS011;5643;50.856;12.088;2022-10-16T13:00:00;0.10;;;0.10;;
11173;SDS011;5643;50.856;12.088;2022-10-16T13:05:26;0.30;;;0.30;;
11173;SDS011;5643;50.856;12.088;2022-10-16T13:07:59;0.93;;;0.30;;
11173;SDS011;5643;50.856;12.088;2022-10-16T13:10:31;0.20;;;0.20;;
11173;SDS011;5643;50.856;12.088;2022-10-16T13:13:11;0.22;;;0.22;;
11173;SDS011;5643;50.856;12.088;2022-10-16T13:15:46;0.28;;;0.20;;
11173;SDS011;5643;50.856;12.088;2022-10-16T13:18:16;0.32;;;0.30;;
11173;SDS011;5643;50.856;12.088;2022-10-16T13:20:53;0.30;;;0.30;;
11173;SDS011;5643;50.856;12.088;2022-10-16T13:23:26;0.20;;;0.20;;
11173;SDS011;5643;50.856;12.088;2022-10-16T13:25:58;0.30;;;0.30;;
11173;SDS011;5643;50.856;12.088;2022-10-16T13:28:28;0.43;;;0.20;;
11173;SDS011;5643;50.856;12.088;2022-10-16T13:30:57;0.20;;;0.20;;
11173;SDS011;5643;50.856;12.088;2022-10-16T13:33:30;0.30;;;0.30;;
11173;SDS011;5643;50.856;12.088;2022-10-16T13:35:58;0.20;;;0.20;;
11173;SDS011;5643;50.856;12.088;2022-10-16T13:38:27;0.20;;;0.20;;
11173;SDS011;5643;50.856;12.088;2022-10-16T13:40:55;0.25;;;0.20;;
11173;SDS011;5643;50.856;12.088;2022-10-16T13:43:23;0.15;;;0.15;;
11173;SDS011;5643;50.856;12.088;2022-10-16T13:45:55;0.50;;;0.20;;
11173;SDS011;5643;50.856;12.088;2022-10-16T13:48:23;0.20;;;0.20;;
11173;SDS011;5643;50.856;12.088;2022-10-16T13:51:03;0.17;;;0.17;;
11173;SDS011;5643;50.856;12.088;2022-10-16T13:53:33;0.20;;;0.20;;
11173;SDS011;5643;50.856;12.088;2022-10-16T13:56:02;1.15;;;0.30;;
11173;SDS011;5643;50.856;12.088;2022-10-16T13:58:29;0.20;;;0.20;;
11173;SDS011;5643;50.856;12.088;2022-10-16T14:00:57;0.10;;;0.10;;
11173;SDS011;5643;50.856;12.088;2022-10-16T14:03:25;0.30;;;0.30;;
11173;SDS011;5643;50.856;12.088;2022-10-16T14:05:53;0.87;;;0.20;;
11173;SDS011;5643;50.856;12.088;2022-10-16T14:08:23;0.20;;;0.20;;
11173;SDS011;5643;50.856;12.088;2022-10-16T14:10:53;0.27;;;0.27;;
11173;SDS011;5643;50.856;12.088;2022-10-16T14:13:23;0.20;;;0.20;;
11173;SDS011;5643;50.856;12.088;2022-10-16T14:15:53;0.17;;;0.17;;
11173;SDS011;5643;50.856;12.088;2022-10-16T14:18:23;0.20;;;0.20;;
11173;SDS011;5643;50.856;12.088;2022-10-16T14:20:51;0.20;;;0.20;;
11173;SDS011;5643;50.856;12.088;2022-10-16T14:23:19;0.20;;;0.20;;
11173;SDS011;5643;50.856;12.088;2022-10-16T14:25:47;0.20;;;0.20;;
11173;SDS011;5643;50.856;12.088;2022-10-16T14:28:17;0.13;;;0.13;;
11173;SDS011;5643;50.856;12.088;2022-10-16T14:30:51;0.30;;;0.30;;
11173;SDS011;5643;50.856;12.088;2022-10-16T14:33:20;0.20;;;0.20;;
11173;SDS011;5643;50.856;12.088;2022-10-16T14:35:57;0.10;;;0.10;;
11173;SDS011;5643;50.856;12.088;2022-10-16T14:38:25;0.10;;;0.10;;
11173;SDS011;5643;50.856;12.088;2022-10-16T14:40:53;0.10;;;0.10;;
11173;SDS011;5643;50.856;12.088;2022-10-16T14:43:23;0.20;;;0.10;;
11173;SDS011;5643;50.856;12.088;2022-10-16T14:45:54;0.10;;;0.10;;
11173;SDS011;5643;50.856;12.088;2022-10-16T14:48:22;0.10;;;0.10;;
11173;SDS011;5643;50.856;12.088;2022-10-16T14:50:50;0.10;;;0.10;;
11173;SDS011;5643;50.856;12.088;2022-10-16T14:53:17;0.30;;;0.30;;
11173;SDS011;5643;50.856;12.088;2022-10-16T14:55:45;0.20;;;0.20;;
11173;SDS011;5643;50.856;12.088;2022-10-16T14:58:13;0.10;;;0.10;;
11173;SDS011;5643;50.856;12.088;2022-10-16T15:00:43;0.23;;;0.20;;
11173;SDS011;5643;50.856;12.088;2022-10-16T15:03:10;0.40;;;0.30;;
11173;SDS011;5643;50.856;12.088;2022-10-16T15:05:37;0.30;;;0.30;;
11173;SDS011;5643;50.856;12.088;2022-10-16T15:08:05;0.20;;;0.20;;